createdAt,value
2023-03-20T00:10:11.128Z,81.15
2023-03-20T00:22:08.819Z,85.11
2023-03-20T00:34:09.253Z,83.43
2023-03-20T00:46:09.725Z,76.98
2023-03-20T00:58:10.163Z,83.74
2023-03-20T01:10:12.811Z,79.88
2023-03-20T01:22:11.070Z,78.75
2023-03-20T01:34:14.216Z,85.53
2023-03-20T01:46:12.021Z,79.37
2023-03-20T01:58:12.420Z,80.70
2023-03-20T02:10:12.857Z,82.61
2023-03-20T02:22:13.315Z,82.86
2023-03-20T02:34:13.769Z,79.30
2023-03-20T02:46:14.349Z,83.22
2023-03-20T02:58:16.875Z,80.18
2023-03-20T03:10:15.323Z,84.13
2023-03-20T03:22:15.579Z,83.76
2023-03-20T03:34:16.027Z,80.99
2023-03-20T03:46:16.497Z,86.74
2023-03-20T03:58:16.950Z,85.19
2023-03-20T04:10:17.394Z,85.53
2023-03-20T04:22:18.035Z,81.33
2023-03-20T04:34:18.363Z,83.67
2023-03-20T04:46:18.811Z,88.62
2023-03-20T04:58:19.211Z,89.36
2023-03-20T05:10:19.663Z,86.29
2023-03-20T05:22:20.095Z,80.94
2023-03-20T05:34:20.590Z,84.27
2023-03-20T05:46:21.021Z,83.81
2023-03-20T05:58:21.457Z,85.63
2023-03-20T06:10:24.615Z,86.42
2023-03-20T06:22:25.075Z,85.86
2023-03-20T06:34:22.812Z,85.55
2023-03-20T06:46:23.291Z,85.48
2023-03-20T06:58:23.705Z,84.81
2023-03-20T07:10:24.172Z,83.00
2023-03-20T07:22:24.609Z,79.77
2023-03-20T07:34:25.073Z,79.69
2023-03-20T07:46:25.738Z,78.41
2023-03-20T07:58:26.031Z,77.33
2023-03-20T08:10:26.511Z,74.18
2023-03-20T08:22:26.886Z,72.15
2023-03-20T08:34:27.361Z,69.25
2023-03-20T08:46:27.899Z,65.45
2023-03-20T08:58:28.229Z,61.99
2023-03-20T09:10:28.703Z,57.89
2023-03-20T09:22:29.163Z,53.51
2023-03-20T09:34:29.657Z,50.85
2023-03-20T09:46:30.096Z,51.69
2023-03-20T09:58:30.503Z,47.81
2023-03-20T10:10:30.936Z,47.99
2023-03-20T10:22:31.451Z,45.89
2023-03-20T10:34:31.841Z,45.90
2023-03-20T10:46:32.384Z,43.85
2023-03-20T10:58:32.788Z,46.84
2023-03-20T11:10:33.549Z,46.75
2023-03-20T11:22:33.689Z,43.23
2023-03-20T11:34:34.265Z,43.88
2023-03-20T11:46:34.560Z,42.55
2023-03-20T11:58:35.059Z,39.41
2023-03-20T12:10:35.842Z,40.90
2023-03-20T12:22:35.996Z,40.34
2023-03-20T12:34:36.427Z,39.61
2023-03-20T12:46:36.921Z,43.58
2023-03-20T12:58:37.329Z,41.87
2023-03-20T13:10:38.186Z,43.37
2023-03-20T13:22:38.279Z,42.50
2023-03-20T13:34:38.750Z,41.90
2023-03-20T13:46:39.234Z,40.41
2023-03-20T13:58:39.653Z,40.41
2023-03-20T14:10:40.380Z,41.15
2023-03-20T14:22:40.501Z,42.04
2023-03-20T14:34:40.969Z,43.80
2023-03-20T14:46:41.456Z,44.49
2023-03-20T14:58:41.893Z,45.41
2023-03-20T15:10:42.369Z,47.24
2023-03-20T15:22:42.796Z,49.00
2023-03-20T15:34:43.258Z,46.62
2023-03-20T15:46:43.714Z,47.82
2023-03-20T15:58:44.188Z,48.37
2023-03-20T16:10:44.608Z,55.05
2023-03-20T16:22:45.086Z,56.19
2023-03-20T16:34:45.512Z,56.95
2023-03-20T16:46:46.010Z,58.50
2023-03-20T16:58:46.433Z,57.03
2023-03-20T17:10:47.048Z,58.04
2023-03-20T17:22:47.361Z,61.67
2023-03-20T17:34:47.849Z,62.63
2023-03-20T17:46:57.959Z,62.54
2023-03-20T17:58:48.721Z,65.57
2023-03-20T18:10:49.163Z,63.49
2023-03-20T18:22:49.655Z,64.60
2023-03-20T18:34:50.048Z,65.13
2023-03-20T18:46:50.766Z,65.35
2023-03-20T18:58:50.973Z,66.63
2023-03-20T19:10:51.436Z,71.48
2023-03-20T19:22:51.869Z,72.01
2023-03-20T19:35:38.908Z,69.55
2023-03-20T19:46:52.795Z,71.21
2023-03-20T19:58:53.289Z,72.38
2023-03-20T20:10:56.906Z,70.14
2023-03-20T20:22:54.333Z,79.03
2023-03-20T20:46:55.055Z,81.47
2023-03-20T20:58:59.709Z,77.49
2023-03-20T21:10:55.958Z,76.56
2023-03-20T21:22:56.403Z,79.31
2023-03-20T21:34:56.899Z,86.42
2023-03-20T21:47:50.809Z,90.38
2023-03-20T22:11:45.011Z,87.83
2023-03-20T22:46:59.547Z,88.72
2023-03-20T22:59:00.035Z,89.78
2023-03-20T23:11:02.762Z,88.09
2023-03-20T23:23:00.972Z,83.98
2023-03-20T23:35:03.660Z,86.48
2023-03-20T23:47:08.356Z,84.86
2023-03-20T23:59:11.452Z,86.70
